In Rescue
 
Open Full Screen Window  High Contrast Mode
Wind Gusting 00 knots
04
March 31, 2020 3:08 PM CDT
Weather Information
Wind Direction
  150 °
Wind Speed
  04 kt (5 mph)
Wind Gust
  00 kt (0 mph)
Altimeter
30.06 in
Visibility
10 SM
Temperature
12° C
54° F
Dewpoint
-09° C
16° F
Humidity
22%
1hr Rain Fall
00.00 in.
24hr Rain Fall
00.00 in.
Sky Condition
Clear
VFR

METAR KVWU 312008Z AUTO 15004KT 10SM CLR 12/M09 A3006 RMK AO2

FAA Disclaimer: The data displayed is for advisory purposes only and is not to be used for flight planning or operations.